sensor_id;sensor_type;location;lat;lon;timestamp;temperature;humidity
54178;DHT22;40085;53.004;6.770;2024-03-17T00:02:09;4.00;99.90
54178;DHT22;40085;53.004;6.770;2024-03-17T00:04:34;4.10;99.90
54178;DHT22;40085;53.004;6.770;2024-03-17T00:07:00;4.00;99.90
54178;DHT22;40085;53.004;6.770;2024-03-17T00:09:39;4.80;99.90
54178;DHT22;40085;53.004;6.770;2024-03-17T00:12:06;4.00;99.90
54178;DHT22;40085;53.004;6.770;2024-03-17T00:14:33;3.90;99.90
54178;DHT22;40085;53.004;6.770;2024-03-17T00:17:00;4.30;99.90
54178;DHT22;40085;53.004;6.770;2024-03-17T00:19:26;3.90;99.90
54178;DHT22;40085;53.004;6.770;2024-03-17T00:21:52;6.00;99.90
54178;DHT22;40085;53.004;6.770;2024-03-17T00:24:19;3.40;99.90
54178;DHT22;40085;53.004;6.770;2024-03-17T00:26:46;3.70;99.90
54178;DHT22;40085;53.004;6.770;2024-03-17T00:29:12;3.60;99.90
54178;DHT22;40085;53.004;6.770;2024-03-17T00:31:38;4.90;99.90
54178;DHT22;40085;53.004;6.770;2024-03-17T00:34:03;3.80;99.90
54178;DHT22;40085;53.004;6.770;2024-03-17T00:36:32;3.60;99.90
54178;DHT22;40085;53.004;6.770;2024-03-17T00:38:58;5.60;99.90
54178;DHT22;40085;53.004;6.770;2024-03-17T00:41:24;5.00;99.90
54178;DHT22;40085;53.004;6.770;2024-03-17T00:43:50;6.60;99.90
54178;DHT22;40085;53.004;6.770;2024-03-17T00:46:21;3.50;99.90
54178;DHT22;40085;53.004;6.770;2024-03-17T00:48:49;3.90;99.90
54178;DHT22;40085;53.004;6.770;2024-03-17T00:51:15;3.50;99.90
54178;DHT22;40085;53.004;6.770;2024-03-17T00:53:41;3.50;99.90
54178;DHT22;40085;53.004;6.770;2024-03-17T00:56:08;3.40;99.90
54178;DHT22;40085;53.004;6.770;2024-03-17T00:58:34;3.40;99.90
54178;DHT22;40085;53.004;6.770;2024-03-17T01:01:00;4.60;99.90
54178;DHT22;40085;53.004;6.770;2024-03-17T01:03:25;3.30;99.90
54178;DHT22;40085;53.004;6.770;2024-03-17T01:05:53;3.40;99.90
54178;DHT22;40085;53.004;6.770;2024-03-17T01:08:19;3.40;99.90
54178;DHT22;40085;53.004;6.770;2024-03-17T01:11:05;3.30;99.90
54178;DHT22;40085;53.004;6.770;2024-03-17T01:13:34;3.30;99.90
54178;DHT22;40085;53.004;6.770;2024-03-17T01:16:03;4.50;99.90
54178;DHT22;40085;53.004;6.770;2024-03-17T01:18:29;3.20;99.90
54178;DHT22;40085;53.004;6.770;2024-03-17T01:20:55;3.60;99.90
54178;DHT22;40085;53.004;6.770;2024-03-17T01:23:21;3.10;99.90
54178;DHT22;40085;53.004;6.770;2024-03-17T01:25:47;3.10;99.90
54178;DHT22;40085;53.004;6.770;2024-03-17T01:28:13;3.10;99.90
54178;DHT22;40085;53.004;6.770;2024-03-17T01:30:39;3.00;99.90
54178;DHT22;40085;53.004;6.770;2024-03-17T01:33:05;3.40;99.90
54178;DHT22;40085;53.004;6.770;2024-03-17T01:35:31;3.10;99.90
54178;DHT22;40085;53.004;6.770;2024-03-17T01:37:56;3.10;99.90
54178;DHT22;40085;53.004;6.770;2024-03-17T01:40:22;3.10;99.90
54178;DHT22;40085;53.004;6.770;2024-03-17T01:42:48;3.10;99.90
54178;DHT22;40085;53.004;6.770;2024-03-17T01:45:24;3.20;99.90
54178;DHT22;40085;53.004;6.770;2024-03-17T01:47:51;4.20;99.90
54178;DHT22;40085;53.004;6.770;2024-03-17T01:50:17;2.90;99.90
54178;DHT22;40085;53.004;6.770;2024-03-17T01:52:47;3.00;99.90
54178;DHT22;40085;53.004;6.770;2024-03-17T01:55:13;3.00;99.90
54178;DHT22;40085;53.004;6.770;2024-03-17T01:57:39;4.20;99.90
54178;DHT22;40085;53.004;6.770;2024-03-17T02:00:06;2.90;99.90
54178;DHT22;40085;53.004;6.770;2024-03-17T02:02:36;2.90;99.90
54178;DHT22;40085;53.004;6.770;2024-03-17T02:05:02;2.90;99.90
54178;DHT22;40085;53.004;6.770;2024-03-17T02:07:29;2.90;99.90
54178;DHT22;40085;53.004;6.770;2024-03-17T02:10:15;2.80;99.90
54178;DHT22;40085;53.004;6.770;2024-03-17T02:12:41;2.80;99.90
54178;DHT22;40085;53.004;6.770;2024-03-17T02:15:07;2.90;99.90
54178;DHT22;40085;53.004;6.770;2024-03-17T02:17:33;3.00;99.90
54178;DHT22;40085;53.004;6.770;2024-03-17T02:19:59;3.00;99.90
54178;DHT22;40085;53.004;6.770;2024-03-17T02:22:28;3.00;99.90
54178;DHT22;40085;53.004;6.770;2024-03-17T02:24:54;3.00;99.90
54178;DHT22;40085;53.004;6.770;2024-03-17T02:27:20;3.00;99.90
54178;DHT22;40085;53.004;6.770;2024-03-17T02:29:45;4.50;99.90
54178;DHT22;40085;53.004;6.770;2024-03-17T02:32:11;3.10;99.90
54178;DHT22;40085;53.004;6.770;2024-03-17T02:34:38;2.90;99.90
54178;DHT22;40085;53.004;6.770;2024-03-17T02:37:06;2.90;99.90
54178;DHT22;40085;53.004;6.770;2024-03-17T02:39:33;2.90;99.90
54178;DHT22;40085;53.004;6.770;2024-03-17T02:42:10;2.90;99.90
54178;DHT22;40085;53.004;6.770;2024-03-17T02:44:37;2.80;99.90
54178;DHT22;40085;53.004;6.770;2024-03-17T02:47:04;3.10;99.90
54178;DHT22;40085;53.004;6.770;2024-03-17T02:49:31;2.80;99.90
54178;DHT22;40085;53.004;6.770;2024-03-17T02:52:09;2.80;99.90
54178;DHT22;40085;53.004;6.770;2024-03-17T02:54:35;2.80;99.90
54178;DHT22;40085;53.004;6.770;2024-03-17T02:57:02;2.80;99.90
54178;DHT22;40085;53.004;6.770;2024-03-17T02:59:28;2.80;99.90
54178;DHT22;40085;53.004;6.770;2024-03-17T03:01:54;2.80;99.90
54178;DHT22;40085;53.004;6.770;2024-03-17T03:04:20;2.80;99.90
54178;DHT22;40085;53.004;6.770;2024-03-17T03:06:46;2.70;99.90
54178;DHT22;40085;53.004;6.770;2024-03-17T03:09:12;3.30;99.90
54178;DHT22;40085;53.004;6.770;2024-03-17T03:11:56;2.80;99.90
54178;DHT22;40085;53.004;6.770;2024-03-17T03:14:22;3.90;99.90
54178;DHT22;40085;53.004;6.770;2024-03-17T03:16:47;4.00;99.90
54178;DHT22;40085;53.004;6.770;2024-03-17T03:19:15;2.80;99.90
54178;DHT22;40085;53.004;6.770;2024-03-17T03:21:40;2.80;99.90
54178;DHT22;40085;53.004;6.770;2024-03-17T03:24:06;4.50;99.90
54178;DHT22;40085;53.004;6.770;2024-03-17T03:26:32;2.80;99.90
54178;DHT22;40085;53.004;6.770;2024-03-17T03:28:59;4.10;99.90
54178;DHT22;40085;53.004;6.770;2024-03-17T03:31:24;4.30;99.90
54178;DHT22;40085;53.004;6.770;2024-03-17T03:33:50;2.80;99.90
54178;DHT22;40085;53.004;6.770;2024-03-17T03:36:16;2.80;99.90
54178;DHT22;40085;53.004;6.770;2024-03-17T03:38:46;3.50;99.90
54178;DHT22;40085;53.004;6.770;2024-03-17T03:41:14;2.80;99.90
54178;DHT22;40085;53.004;6.770;2024-03-17T03:43:40;2.90;99.90
54178;DHT22;40085;53.004;6.770;2024-03-17T03:46:07;3.30;99.90
54178;DHT22;40085;53.004;6.770;2024-03-17T03:48:33;3.90;99.90
54178;DHT22;40085;53.004;6.770;2024-03-17T03:51:09;2.80;99.90
54178;DHT22;40085;53.004;6.770;2024-03-17T03:53:35;2.90;99.90
54178;DHT22;40085;53.004;6.770;2024-03-17T03:56:05;5.10;99.90
54178;DHT22;40085;53.004;6.770;2024-03-17T03:58:39;2.90;99.90
54178;DHT22;40085;53.004;6.770;2024-03-17T04:01:06;3.40;99.90
54178;DHT22;40085;53.004;6.770;2024-03-17T04:03:36;3.00;99.90
54178;DHT22;40085;53.004;6.770;2024-03-17T04:06:03;3.10;99.90
54178;DHT22;40085;53.004;6.770;2024-03-17T04:08:30;3.10;99.90
54178;DHT22;40085;53.004;6.770;2024-03-17T04:11:03;3.20;99.90
54178;DHT22;40085;53.004;6.770;2024-03-17T04:13:30;3.20;99.90
54178;DHT22;40085;53.004;6.770;2024-03-17T04:15:57;3.30;99.90
54178;DHT22;40085;53.004;6.770;2024-03-17T04:18:27;3.30;99.90
54178;DHT22;40085;53.004;6.770;2024-03-17T04:20:57;3.30;99.90
54178;DHT22;40085;53.004;6.770;2024-03-17T04:23:23;5.40;99.90
54178;DHT22;40085;53.004;6.770;2024-03-17T04:25:50;3.40;99.90
54178;DHT22;40085;53.004;6.770;2024-03-17T04:28:16;3.50;99.90
54178;DHT22;40085;53.004;6.770;2024-03-17T04:30:42;3.50;99.90
54178;DHT22;40085;53.004;6.770;2024-03-17T04:33:09;3.60;99.90
54178;DHT22;40085;53.004;6.770;2024-03-17T04:35:36;3.60;99.90
54178;DHT22;40085;53.004;6.770;2024-03-17T04:38:02;4.80;99.90
54178;DHT22;40085;53.004;6.770;2024-03-17T04:40:28;3.70;99.90
54178;DHT22;40085;53.004;6.770;2024-03-17T04:42:53;3.70;99.90
54178;DHT22;40085;53.004;6.770;2024-03-17T04:45:19;5.30;99.90
54178;DHT22;40085;53.004;6.770;2024-03-17T04:47:45;4.30;99.90
54178;DHT22;40085;53.004;6.770;2024-03-17T04:50:11;3.80;99.90
54178;DHT22;40085;53.004;6.770;2024-03-17T04:52:38;3.90;99.90
54178;DHT22;40085;53.004;6.770;2024-03-17T04:55:04;4.30;99.90
54178;DHT22;40085;53.004;6.770;2024-03-17T04:57:30;3.90;99.90
54178;DHT22;40085;53.004;6.770;2024-03-17T04:59:55;3.90;99.90
54178;DHT22;40085;53.004;6.770;2024-03-17T05:02:22;4.80;99.90
54178;DHT22;40085;53.004;6.770;2024-03-17T05:04:50;3.90;99.90
54178;DHT22;40085;53.004;6.770;2024-03-17T05:07:15;4.80;99.90
54178;DHT22;40085;53.004;6.770;2024-03-17T05:09:48;3.70;99.90
54178;DHT22;40085;53.004;6.770;2024-03-17T05:12:15;3.90;99.90
54178;DHT22;40085;53.004;6.770;2024-03-17T05:14:41;3.90;99.90
54178;DHT22;40085;53.004;6.770;2024-03-17T05:17:07;4.00;99.90
54178;DHT22;40085;53.004;6.770;2024-03-17T05:19:32;3.90;99.90
54178;DHT22;40085;53.004;6.770;2024-03-17T05:21:58;5.60;99.90
54178;DHT22;40085;53.004;6.770;2024-03-17T05:24:23;5.00;99.90
54178;DHT22;40085;53.004;6.770;2024-03-17T05:26:49;3.90;99.90
54178;DHT22;40085;53.004;6.770;2024-03-17T05:29:15;4.30;99.90
54178;DHT22;40085;53.004;6.770;2024-03-17T05:31:40;5.30;99.90
54178;DHT22;40085;53.004;6.770;2024-03-17T05:34:08;5.20;99.90
54178;DHT22;40085;53.004;6.770;2024-03-17T05:36:36;4.80;99.90
54178;DHT22;40085;53.004;6.770;2024-03-17T05:39:02;4.00;99.90
54178;DHT22;40085;53.004;6.770;2024-03-17T05:41:28;3.90;99.90
54178;DHT22;40085;53.004;6.770;2024-03-17T05:43:53;5.80;99.90
54178;DHT22;40085;53.004;6.770;2024-03-17T05:46:24;4.30;99.90
54178;DHT22;40085;53.004;6.770;2024-03-17T05:48:51;4.50;99.90
54178;DHT22;40085;53.004;6.770;2024-03-17T05:51:17;4.00;99.90
54178;DHT22;40085;53.004;6.770;2024-03-17T05:53:43;5.50;99.90
54178;DHT22;40085;53.004;6.770;2024-03-17T05:56:10;5.60;99.90
54178;DHT22;40085;53.004;6.770;2024-03-17T05:58:42;4.00;99.90
54178;DHT22;40085;53.004;6.770;2024-03-17T06:01:08;4.00;99.90
54178;DHT22;40085;53.004;6.770;2024-03-17T06:03:37;4.10;99.90
54178;DHT22;40085;53.004;6.770;2024-03-17T06:06:04;4.10;99.90
54178;DHT22;40085;53.004;6.770;2024-03-17T06:08:30;4.20;99.90
54178;DHT22;40085;53.004;6.770;2024-03-17T06:11:17;4.10;99.90
54178;DHT22;40085;53.004;6.770;2024-03-17T06:13:42;4.20;99.90
54178;DHT22;40085;53.004;6.770;2024-03-17T06:16:08;4.10;99.90
54178;DHT22;40085;53.004;6.770;2024-03-17T06:18:34;4.10;99.90
54178;DHT22;40085;53.004;6.770;2024-03-17T06:20:59;4.10;99.90
54178;DHT22;40085;53.004;6.770;2024-03-17T06:23:25;4.10;99.90
54178;DHT22;40085;53.004;6.770;2024-03-17T06:25:54;4.10;99.90
54178;DHT22;40085;53.004;6.770;2024-03-17T06:28:24;4.20;99.90
54178;DHT22;40085;53.004;6.770;2024-03-17T06:30:57;4.20;99.90
54178;DHT22;40085;53.004;6.770;2024-03-17T06:33:25;4.20;99.90
54178;DHT22;40085;53.004;6.770;2024-03-17T06:35:51;4.20;99.90
54178;DHT22;40085;53.004;6.770;2024-03-17T06:38:16;4.20;99.90
54178;DHT22;40085;53.004;6.770;2024-03-17T06:40:48;4.30;99.90
54178;DHT22;40085;53.004;6.770;2024-03-17T06:43:14;5.60;99.90
54178;DHT22;40085;53.004;6.770;2024-03-17T06:45:40;4.50;99.90
54178;DHT22;40085;53.004;6.770;2024-03-17T06:48:06;4.60;99.90
54178;DHT22;40085;53.004;6.770;2024-03-17T06:50:32;4.70;99.90
54178;DHT22;40085;53.004;6.770;2024-03-17T06:52:58;4.80;99.90
54178;DHT22;40085;53.004;6.770;2024-03-17T06:55:24;5.00;99.90
54178;DHT22;40085;53.004;6.770;2024-03-17T06:57:50;5.10;99.90
54178;DHT22;40085;53.004;6.770;2024-03-17T07:00:16;6.70;99.90
54178;DHT22;40085;53.004;6.770;2024-03-17T07:02:43;5.20;99.90
54178;DHT22;40085;53.004;6.770;2024-03-17T07:05:13;5.30;99.90
54178;DHT22;40085;53.004;6.770;2024-03-17T07:07:44;5.40;99.90
54178;DHT22;40085;53.004;6.770;2024-03-17T07:10:31;5.40;99.90
54178;DHT22;40085;53.004;6.770;2024-03-17T07:12:56;7.00;99.90
54178;DHT22;40085;53.004;6.770;2024-03-17T07:15:22;5.60;99.90
54178;DHT22;40085;53.004;6.770;2024-03-17T07:17:50;5.70;99.90
54178;DHT22;40085;53.004;6.770;2024-03-17T07:20:16;5.70;99.90
54178;DHT22;40085;53.004;6.770;2024-03-17T07:22:49;5.80;99.90
54178;DHT22;40085;53.004;6.770;2024-03-17T07:25:34;6.70;99.90
54178;DHT22;40085;53.004;6.770;2024-03-17T07:28:00;6.30;99.90
54178;DHT22;40085;53.004;6.770;2024-03-17T07:30:26;5.90;99.90
54178;DHT22;40085;53.004;6.770;2024-03-17T07:32:52;6.00;99.90
54178;DHT22;40085;53.004;6.770;2024-03-17T07:35:17;7.80;99.90
54178;DHT22;40085;53.004;6.770;2024-03-17T07:37:43;6.70;99.90
54178;DHT22;40085;53.004;6.770;2024-03-17T07:40:09;6.20;99.90
54178;DHT22;40085;53.004;6.770;2024-03-17T07:42:36;6.20;99.90
54178;DHT22;40085;53.004;6.770;2024-03-17T07:45:02;7.70;99.90
54178;DHT22;40085;53.004;6.770;2024-03-17T07:47:29;6.40;99.90
54178;DHT22;40085;53.004;6.770;2024-03-17T07:50:04;6.50;99.90
54178;DHT22;40085;53.004;6.770;2024-03-17T07:52:34;6.60;99.90
54178;DHT22;40085;53.004;6.770;2024-03-17T07:54:59;6.80;99.90
54178;DHT22;40085;53.004;6.770;2024-03-17T07:57:25;6.90;99.90
54178;DHT22;40085;53.004;6.770;2024-03-17T07:59:51;7.00;99.90
54178;DHT22;40085;53.004;6.770;2024-03-17T08:02:17;8.30;99.90
54178;DHT22;40085;53.004;6.770;2024-03-17T08:04:42;7.10;99.90
54178;DHT22;40085;53.004;6.770;2024-03-17T08:07:10;7.20;99.90
54178;DHT22;40085;53.004;6.770;2024-03-17T08:09:36;7.30;99.90
54178;DHT22;40085;53.004;6.770;2024-03-17T08:12:09;7.20;99.90
54178;DHT22;40085;53.004;6.770;2024-03-17T08:14:35;7.20;99.90
54178;DHT22;40085;53.004;6.770;2024-03-17T08:17:01;7.50;99.90
54178;DHT22;40085;53.004;6.770;2024-03-17T08:19:26;7.20;99.90
54178;DHT22;40085;53.004;6.770;2024-03-17T08:21:53;7.10;99.90
54178;DHT22;40085;53.004;6.770;2024-03-17T08:24:19;7.10;99.90
54178;DHT22;40085;53.004;6.770;2024-03-17T08:26:44;7.20;99.90
54178;DHT22;40085;53.004;6.770;2024-03-17T08:29:11;7.50;99.90
54178;DHT22;40085;53.004;6.770;2024-03-17T08:31:37;7.30;99.90
54178;DHT22;40085;53.004;6.770;2024-03-17T08:34:03;7.40;99.90
54178;DHT22;40085;53.004;6.770;2024-03-17T08:36:28;7.40;99.90
54178;DHT22;40085;53.004;6.770;2024-03-17T08:38:54;7.50;99.90
54178;DHT22;40085;53.004;6.770;2024-03-17T08:41:20;7.60;99.90
54178;DHT22;40085;53.004;6.770;2024-03-17T08:43:46;7.60;99.90
54178;DHT22;40085;53.004;6.770;2024-03-17T08:46:12;7.60;99.90
54178;DHT22;40085;53.004;6.770;2024-03-17T08:48:40;7.60;99.90
54178;DHT22;40085;53.004;6.770;2024-03-17T08:51:07;7.70;99.90
54178;DHT22;40085;53.004;6.770;2024-03-17T08:53:33;7.80;99.90
54178;DHT22;40085;53.004;6.770;2024-03-17T08:55:59;7.80;99.90
54178;DHT22;40085;53.004;6.770;2024-03-17T08:58:26;7.80;99.90
54178;DHT22;40085;53.004;6.770;2024-03-17T09:00:52;7.90;99.90
54178;DHT22;40085;53.004;6.770;2024-03-17T09:03:18;7.90;99.90
54178;DHT22;40085;53.004;6.770;2024-03-17T09:08:19;8.00;99.90
54178;DHT22;40085;53.004;6.770;2024-03-17T09:10:53;8.10;99.90
54178;DHT22;40085;53.004;6.770;2024-03-17T09:13:20;8.20;99.90
54178;DHT22;40085;53.004;6.770;2024-03-17T09:15:51;8.20;99.90
54178;DHT22;40085;53.004;6.770;2024-03-17T09:18:17;8.30;99.90
54178;DHT22;40085;53.004;6.770;2024-03-17T09:28:02;8.60;99.90
54178;DHT22;40085;53.004;6.770;2024-03-17T09:30:28;8.70;99.90
54178;DHT22;40085;53.004;6.770;2024-03-17T09:32:54;8.80;99.90
54178;DHT22;40085;53.004;6.770;2024-03-17T09:52:33;9.50;99.90
54178;DHT22;40085;53.004;6.770;2024-03-17T09:55:01;9.60;99.90
54178;DHT22;40085;53.004;6.770;2024-03-17T09:57:33;9.80;99.90
54178;DHT22;40085;53.004;6.770;2024-03-17T10:00:04;10.10;99.90
54178;DHT22;40085;53.004;6.770;2024-03-17T10:02:47;10.30;99.90
54178;DHT22;40085;53.004;6.770;2024-03-17T10:05:21;10.50;99.90
54178;DHT22;40085;53.004;6.770;2024-03-17T10:07:48;10.30;99.90
54178;DHT22;40085;53.004;6.770;2024-03-17T10:10:21;10.40;99.90
54178;DHT22;40085;53.004;6.770;2024-03-17T10:12:51;10.50;99.90
54178;DHT22;40085;53.004;6.770;2024-03-17T10:15:18;10.50;99.90
54178;DHT22;40085;53.004;6.770;2024-03-17T10:17:44;10.50;99.90
54178;DHT22;40085;53.004;6.770;2024-03-17T10:20:15;10.50;99.90
54178;DHT22;40085;53.004;6.770;2024-03-17T10:22:57;10.70;99.90
54178;DHT22;40085;53.004;6.770;2024-03-17T10:25:27;10.70;99.90
54178;DHT22;40085;53.004;6.770;2024-03-17T10:27:54;10.80;99.90
54178;DHT22;40085;53.004;6.770;2024-03-17T10:30:20;10.70;94.00
54178;DHT22;40085;53.004;6.770;2024-03-17T10:32:52;10.60;92.90
54178;DHT22;40085;53.004;6.770;2024-03-17T10:35:45;10.70;93.30
54178;DHT22;40085;53.004;6.770;2024-03-17T10:38:12;10.60;84.70
54178;DHT22;40085;53.004;6.770;2024-03-17T10:40:39;10.80;94.30
54178;DHT22;40085;53.004;6.770;2024-03-17T10:43:05;10.60;90.80
54178;DHT22;40085;53.004;6.770;2024-03-17T10:45:32;10.70;95.70
54178;DHT22;40085;53.004;6.770;2024-03-17T10:48:07;10.80;91.90
54178;DHT22;40085;53.004;6.770;2024-03-17T10:50:39;10.70;94.00
54178;DHT22;40085;53.004;6.770;2024-03-17T10:53:07;10.80;98.10
54178;DHT22;40085;53.004;6.770;2024-03-17T10:55:46;10.80;92.90
54178;DHT22;40085;53.004;6.770;2024-03-17T10:58:33;10.80;87.40
54178;DHT22;40085;53.004;6.770;2024-03-17T11:01:01;10.90;93.80
54178;DHT22;40085;53.004;6.770;2024-03-17T11:03:33;10.80;81.60
54178;DHT22;40085;53.004;6.770;2024-03-17T11:06:02;10.80;79.20
54178;DHT22;40085;53.004;6.770;2024-03-17T11:08:31;10.90;90.10
54178;DHT22;40085;53.004;6.770;2024-03-17T11:11:35;11.00;13.70
54178;DHT22;40085;53.004;6.770;2024-03-17T11:14:17;10.90;1.00
54178;DHT22;40085;53.004;6.770;2024-03-17T11:16:48;10.90;99.90
54178;DHT22;40085;53.004;6.770;2024-03-17T11:19:17;11.00;1.00
54178;DHT22;40085;53.004;6.770;2024-03-17T11:21:43;11.00;1.00
54178;DHT22;40085;53.004;6.770;2024-03-17T11:24:19;11.00;99.90
54178;DHT22;40085;53.004;6.770;2024-03-17T11:26:45;11.00;99.90
54178;DHT22;40085;53.004;6.770;2024-03-17T11:29:28;11.00;1.00
54178;DHT22;40085;53.004;6.770;2024-03-17T11:31:54;11.00;99.90
54178;DHT22;40085;53.004;6.770;2024-03-17T11:34:29;11.10;99.90
54178;DHT22;40085;53.004;6.770;2024-03-17T11:36:56;11.10;1.00
54178;DHT22;40085;53.004;6.770;2024-03-17T11:39:49;11.10;1.00
54178;DHT22;40085;53.004;6.770;2024-03-17T11:42:17;11.00;99.90
54178;DHT22;40085;53.004;6.770;2024-03-17T11:44:53;11.20;1.00
54178;DHT22;40085;53.004;6.770;2024-03-17T11:47:19;11.10;99.90
54178;DHT22;40085;53.004;6.770;2024-03-17T11:49:44;11.10;54.50
54178;DHT22;40085;53.004;6.770;2024-03-17T11:52:15;11.10;99.90
54178;DHT22;40085;53.004;6.770;2024-03-17T11:54:46;11.10;1.00
54178;DHT22;40085;53.004;6.770;2024-03-17T11:57:25;11.20;12.70
54178;DHT22;40085;53.004;6.770;2024-03-17T11:59:53;11.10;57.40
54178;DHT22;40085;53.004;6.770;2024-03-17T12:02:30;11.20;99.90
54178;DHT22;40085;53.004;6.770;2024-03-17T12:04:58;11.20;99.90
54178;DHT22;40085;53.004;6.770;2024-03-17T12:07:24;11.10;1.00
54178;DHT22;40085;53.004;6.770;2024-03-17T12:09:51;11.10;1.00
54178;DHT22;40085;53.004;6.770;2024-03-17T12:12:37;11.10;99.90
54178;DHT22;40085;53.004;6.770;2024-03-17T12:15:20;11.10;1.00
54178;DHT22;40085;53.004;6.770;2024-03-17T12:17:52;11.10;1.00
54178;DHT22;40085;53.004;6.770;2024-03-17T12:20:19;11.20;67.40
54178;DHT22;40085;53.004;6.770;2024-03-17T12:22:45;11.20;99.90
54178;DHT22;40085;53.004;6.770;2024-03-17T12:25:21;11.20;1.00
54178;DHT22;40085;53.004;6.770;2024-03-17T12:27:48;11.30;99.90
54178;DHT22;40085;53.004;6.770;2024-03-17T12:30:15;11.30;49.40
54178;DHT22;40085;53.004;6.770;2024-03-17T12:32:41;11.40;99.90
54178;DHT22;40085;53.004;6.770;2024-03-17T12:35:16;11.40;1.00
54178;DHT22;40085;53.004;6.770;2024-03-17T12:37:46;11.40;1.00
54178;DHT22;40085;53.004;6.770;2024-03-17T12:40:19;11.50;99.90
54178;DHT22;40085;53.004;6.770;2024-03-17T12:42:50;11.40;1.00
54178;DHT22;40085;53.004;6.770;2024-03-17T12:45:19;11.40;99.90
54178;DHT22;40085;53.004;6.770;2024-03-17T12:47:48;11.50;99.90
54178;DHT22;40085;53.004;6.770;2024-03-17T12:50:14;11.50;99.90
54178;DHT22;40085;53.004;6.770;2024-03-17T12:52:52;11.50;99.90
54178;DHT22;40085;53.004;6.770;2024-03-17T12:55:19;11.60;99.90
54178;DHT22;40085;53.004;6.770;2024-03-17T13:01:00;11.60;1.00
54178;DHT22;40085;53.004;6.770;2024-03-17T13:03:30;11.60;99.90
54178;DHT22;40085;53.004;6.770;2024-03-17T13:05:58;11.70;99.90
54178;DHT22;40085;53.004;6.770;2024-03-17T13:08:25;11.60;1.00
54178;DHT22;40085;53.004;6.770;2024-03-17T13:11:13;11.80;1.00
54178;DHT22;40085;53.004;6.770;2024-03-17T13:13:39;11.80;1.00
54178;DHT22;40085;53.004;6.770;2024-03-17T13:16:05;11.70;99.90
54178;DHT22;40085;53.004;6.770;2024-03-17T13:18:31;11.80;99.90
54178;DHT22;40085;53.004;6.770;2024-03-17T13:20:57;11.70;99.90
54178;DHT22;40085;53.004;6.770;2024-03-17T13:23:24;11.80;99.90
54178;DHT22;40085;53.004;6.770;2024-03-17T13:25:50;11.80;99.90
54178;DHT22;40085;53.004;6.770;2024-03-17T13:28:16;11.80;99.90
54178;DHT22;40085;53.004;6.770;2024-03-17T13:30:42;11.80;99.90
54178;DHT22;40085;53.004;6.770;2024-03-17T13:33:10;11.90;99.90
54178;DHT22;40085;53.004;6.770;2024-03-17T13:35:38;11.90;99.90
54178;DHT22;40085;53.004;6.770;2024-03-17T13:38:09;11.80;99.90
54178;DHT22;40085;53.004;6.770;2024-03-17T13:40:37;11.80;94.40
54178;DHT22;40085;53.004;6.770;2024-03-17T13:43:04;11.70;49.90
54178;DHT22;40085;53.004;6.770;2024-03-17T13:45:38;11.70;65.40
54178;DHT22;40085;53.004;6.770;2024-03-17T13:48:05;11.70;99.90
54178;DHT22;40085;53.004;6.770;2024-03-17T13:50:31;11.70;91.20
54178;DHT22;40085;53.004;6.770;2024-03-17T13:52:57;11.80;73.00
54178;DHT22;40085;53.004;6.770;2024-03-17T13:55:23;11.80;78.70
54178;DHT22;40085;53.004;6.770;2024-03-17T13:57:54;11.70;34.70
54178;DHT22;40085;53.004;6.770;2024-03-17T14:00:22;11.80;99.90
54178;DHT22;40085;53.004;6.770;2024-03-17T14:02:49;11.80;1.00
54178;DHT22;40085;53.004;6.770;2024-03-17T14:05:17;11.80;76.40
54178;DHT22;40085;53.004;6.770;2024-03-17T14:07:43;11.80;17.10
54178;DHT22;40085;53.004;6.770;2024-03-17T14:10:15;11.80;5.20
54178;DHT22;40085;53.004;6.770;2024-03-17T14:12:47;11.70;1.00
54178;DHT22;40085;53.004;6.770;2024-03-17T14:15:15;11.70;1.00
54178;DHT22;40085;53.004;6.770;2024-03-17T14:17:42;10.10;1.00
54178;DHT22;40085;53.004;6.770;2024-03-17T14:20:08;11.60;1.00
54178;DHT22;40085;53.004;6.770;2024-03-17T14:22:35;11.70;1.00
54178;DHT22;40085;53.004;6.770;2024-03-17T14:25:02;11.80;1.00
54178;DHT22;40085;53.004;6.770;2024-03-17T14:27:27;11.70;1.00
54178;DHT22;40085;53.004;6.770;2024-03-17T14:29:53;11.70;1.00
54178;DHT22;40085;53.004;6.770;2024-03-17T14:32:19;11.60;1.00
54178;DHT22;40085;53.004;6.770;2024-03-17T14:34:46;11.60;1.00
54178;DHT22;40085;53.004;6.770;2024-03-17T14:37:12;11.60;1.00
54178;DHT22;40085;53.004;6.770;2024-03-17T14:39:39;11.50;1.00
54178;DHT22;40085;53.004;6.770;2024-03-17T14:42:05;11.50;1.00
54178;DHT22;40085;53.004;6.770;2024-03-17T14:44:31;11.50;1.00
54178;DHT22;40085;53.004;6.770;2024-03-17T14:46:58;11.40;1.00
54178;DHT22;40085;53.004;6.770;2024-03-17T14:49:23;11.40;99.90
54178;DHT22;40085;53.004;6.770;2024-03-17T14:51:49;11.40;99.90
54178;DHT22;40085;53.004;6.770;2024-03-17T14:54:15;11.40;99.90
54178;DHT22;40085;53.004;6.770;2024-03-17T14:56:42;11.40;1.00
54178;DHT22;40085;53.004;6.770;2024-03-17T14:59:08;11.40;99.90
54178;DHT22;40085;53.004;6.770;2024-03-17T15:01:34;11.40;99.90
54178;DHT22;40085;53.004;6.770;2024-03-17T15:04:00;11.40;1.00
54178;DHT22;40085;53.004;6.770;2024-03-17T15:06:26;11.20;99.90
54178;DHT22;40085;53.004;6.770;2024-03-17T15:08:53;11.40;99.90
54178;DHT22;40085;53.004;6.770;2024-03-17T15:11:32;11.40;99.90
54178;DHT22;40085;53.004;6.770;2024-03-17T15:14:01;11.40;99.90
54178;DHT22;40085;53.004;6.770;2024-03-17T15:16:29;11.40;99.90
54178;DHT22;40085;53.004;6.770;2024-03-17T15:18:55;11.40;99.90
54178;DHT22;40085;53.004;6.770;2024-03-17T15:21:21;11.40;1.00
54178;DHT22;40085;53.004;6.770;2024-03-17T15:23:47;11.40;1.00
54178;DHT22;40085;53.004;6.770;2024-03-17T15:26:13;11.40;1.00
54178;DHT22;40085;53.004;6.770;2024-03-17T15:28:43;11.40;1.00
54178;DHT22;40085;53.004;6.770;2024-03-17T15:31:12;11.40;1.00
54178;DHT22;40085;53.004;6.770;2024-03-17T15:33:38;11.40;11.60
54178;DHT22;40085;53.004;6.770;2024-03-17T15:36:09;11.30;1.00
54178;DHT22;40085;53.004;6.770;2024-03-17T15:38:36;11.30;1.00
54178;DHT22;40085;53.004;6.770;2024-03-17T15:41:06;11.10;1.00
54178;DHT22;40085;53.004;6.770;2024-03-17T15:43:33;11.20;1.00
54178;DHT22;40085;53.004;6.770;2024-03-17T15:46:00;11.20;13.70
54178;DHT22;40085;53.004;6.770;2024-03-17T15:48:26;11.10;51.80
54178;DHT22;40085;53.004;6.770;2024-03-17T15:50:58;11.50;59.80
54178;DHT22;40085;53.004;6.770;2024-03-17T15:53:25;11.20;51.20
54178;DHT22;40085;53.004;6.770;2024-03-17T15:55:54;11.20;98.30
54178;DHT22;40085;53.004;6.770;2024-03-17T15:58:20;11.20;99.90
54178;DHT22;40085;53.004;6.770;2024-03-17T16:00:46;11.10;47.70
54178;DHT22;40085;53.004;6.770;2024-03-17T16:03:13;11.50;79.90
54178;DHT22;40085;53.004;6.770;2024-03-17T16:05:38;11.10;99.90
54178;DHT22;40085;53.004;6.770;2024-03-17T16:08:07;11.10;99.90
54178;DHT22;40085;53.004;6.770;2024-03-17T16:10:36;11.10;99.90
54178;DHT22;40085;53.004;6.770;2024-03-17T16:13:09;11.10;99.90
54178;DHT22;40085;53.004;6.770;2024-03-17T16:15:35;11.10;99.90
54178;DHT22;40085;53.004;6.770;2024-03-17T16:18:01;11.00;99.90
54178;DHT22;40085;53.004;6.770;2024-03-17T16:20:57;11.00;99.90